sensor_id;sensor_type;location;lat;lon;timestamp;pressure;altitude;pressure_sealevel;temperature;humidity
77212;BME280;66206;0.000;0.000;2023-01-28T00:01:23;98411.99;;;23.24;22.82
77212;BME280;66206;0.000;0.000;2023-01-28T00:03:50;98407.98;;;23.08;22.91
77212;BME280;66206;0.000;0.000;2023-01-28T00:06:16;98410.29;;;23.10;23.02
77212;BME280;66206;0.000;0.000;2023-01-28T00:08:43;98405.84;;;22.90;23.26
77212;BME280;66206;0.000;0.000;2023-01-28T00:11:11;98403.31;;;22.75;23.20
77212;BME280;66206;0.000;0.000;2023-01-28T00:13:38;98399.36;;;22.52;23.59
77212;BME280;66206;0.000;0.000;2023-01-28T00:16:06;98398.04;;;22.49;23.38
77212;BME280;66206;0.000;0.000;2023-01-28T00:18:33;98394.30;;;22.25;23.44
77212;BME280;66206;0.000;0.000;2023-01-28T00:21:00;98396.94;;;22.27;23.29
77212;BME280;66206;0.000;0.000;2023-01-28T00:23:28;98397.51;;;22.24;23.31
77212;BME280;66206;0.000;0.000;2023-01-28T00:25:56;98394.44;;;22.21;23.21
77212;BME280;66206;0.000;0.000;2023-01-28T00:28:23;98394.11;;;22.19;23.27
77212;BME280;66206;0.000;0.000;2023-01-28T00:30:50;98393.84;;;22.31;23.14
77212;BME280;66206;0.000;0.000;2023-01-28T00:33:16;98397.52;;;21.94;23.52
77212;BME280;66206;0.000;0.000;2023-01-28T00:35:43;98394.47;;;21.78;23.61
77212;BME280;66206;0.000;0.000;2023-01-28T00:38:10;98392.75;;;21.74;23.52
77212;BME280;66206;0.000;0.000;2023-01-28T00:40:37;98393.26;;;21.86;23.54
77212;BME280;66206;0.000;0.000;2023-01-28T00:43:03;98395.21;;;21.67;23.60
77212;BME280;66206;0.000;0.000;2023-01-28T00:45:30;98395.52;;;21.62;23.69
77212;BME280;66206;0.000;0.000;2023-01-28T00:47:57;98389.08;;;21.63;23.62
77212;BME280;66206;0.000;0.000;2023-01-28T00:50:24;98394.06;;;21.52;23.79
77212;BME280;66206;0.000;0.000;2023-01-28T00:52:50;98393.01;;;21.55;23.64
77212;BME280;66206;0.000;0.000;2023-01-28T00:55:17;98393.92;;;21.60;23.71
77212;BME280;66206;0.000;0.000;2023-01-28T00:57:44;98398.75;;;21.63;23.66
77212;BME280;66206;0.000;0.000;2023-01-28T01:00:11;98398.66;;;21.16;23.99
77212;BME280;66206;0.000;0.000;2023-01-28T01:02:37;98402.21;;;21.38;23.82
77212;BME280;66206;0.000;0.000;2023-01-28T01:05:04;98399.23;;;21.44;23.80
77212;BME280;66206;0.000;0.000;2023-01-28T01:07:31;98403.31;;;21.44;23.73
77212;BME280;66206;0.000;0.000;2023-01-28T01:09:58;98403.67;;;21.57;23.57
77212;BME280;66206;0.000;0.000;2023-01-28T01:12:25;98407.51;;;21.60;23.59
77212;BME280;66206;0.000;0.000;2023-01-28T01:14:52;98407.33;;;21.45;23.58
77212;BME280;66206;0.000;0.000;2023-01-28T01:17:18;98409.35;;;21.19;23.90
77212;BME280;66206;0.000;0.000;2023-01-28T01:19:45;98412.96;;;21.36;23.73
77212;BME280;66206;0.000;0.000;2023-01-28T01:22:12;98412.30;;;21.22;23.90
77212;BME280;66206;0.000;0.000;2023-01-28T01:24:39;98410.28;;;21.36;23.71
77212;BME280;66206;0.000;0.000;2023-01-28T01:27:05;98409.54;;;21.07;23.92
77212;BME280;66206;0.000;0.000;2023-01-28T01:29:32;98409.40;;;21.14;23.84
77212;BME280;66206;0.000;0.000;2023-01-28T01:31:59;98410.98;;;21.24;23.85
77212;BME280;66206;0.000;0.000;2023-01-28T01:34:25;98412.67;;;21.05;23.84
77212;BME280;66206;0.000;0.000;2023-01-28T01:36:52;98414.60;;;21.13;23.86
77212;BME280;66206;0.000;0.000;2023-01-28T01:39:19;98420.33;;;21.07;23.92
77212;BME280;66206;0.000;0.000;2023-01-28T01:41:45;98419.62;;;20.93;23.97
77212;BME280;66206;0.000;0.000;2023-01-28T01:45:17;98421.93;;;21.12;23.82
77212;BME280;66206;0.000;0.000;2023-01-28T01:46:42;98423.28;;;20.97;23.88
77212;BME280;66206;0.000;0.000;2023-01-28T01:49:12;98422.08;;;21.03;23.86
77212;BME280;66206;0.000;0.000;2023-01-28T01:51:36;98425.38;;;21.12;23.76
77212;BME280;66206;0.000;0.000;2023-01-28T01:54:03;98431.06;;;21.15;23.73
77212;BME280;66206;0.000;0.000;2023-01-28T01:56:31;98435.78;;;20.98;23.90
77212;BME280;66206;0.000;0.000;2023-01-28T01:58:58;98431.97;;;20.99;23.89
77212;BME280;66206;0.000;0.000;2023-01-28T02:01:28;98434.58;;;21.22;23.68
77212;BME280;66206;0.000;0.000;2023-01-28T02:03:58;98432.97;;;21.15;23.85
77212;BME280;66206;0.000;0.000;2023-01-28T02:06:21;98429.96;;;21.10;23.74
77212;BME280;66206;0.000;0.000;2023-01-28T02:08:48;98433.85;;;21.15;23.70
77212;BME280;66206;0.000;0.000;2023-01-28T02:11:15;98431.89;;;20.86;23.85
77212;BME280;66206;0.000;0.000;2023-01-28T02:13:43;98437.95;;;21.03;23.88
77212;BME280;66206;0.000;0.000;2023-01-28T02:16:11;98438.07;;;20.89;23.88
77212;BME280;66206;0.000;0.000;2023-01-28T02:18:38;98436.64;;;21.05;23.70
77212;BME280;66206;0.000;0.000;2023-01-28T02:21:17;98437.77;;;20.79;23.79
77212;BME280;66206;0.000;0.000;2023-01-28T02:23:33;98435.39;;;21.25;23.71
77212;BME280;66206;0.000;0.000;2023-01-28T02:26:06;98434.22;;;21.08;23.79
77212;BME280;66206;0.000;0.000;2023-01-28T02:28:26;98434.14;;;20.74;23.91
77212;BME280;66206;0.000;0.000;2023-01-28T02:30:55;98434.19;;;20.96;23.80
77212;BME280;66206;0.000;0.000;2023-01-28T02:33:26;98435.47;;;21.02;23.88
77212;BME280;66206;0.000;0.000;2023-01-28T02:35:51;98432.97;;;20.84;23.89
77212;BME280;66206;0.000;0.000;2023-01-28T02:38:19;98435.50;;;21.01;23.83
77212;BME280;66206;0.000;0.000;2023-01-28T02:40:49;98434.27;;;20.86;23.90
77212;BME280;66206;0.000;0.000;2023-01-28T02:43:17;98431.80;;;20.96;23.83
77212;BME280;66206;0.000;0.000;2023-01-28T02:45:44;98433.07;;;20.98;23.77
77212;BME280;66206;0.000;0.000;2023-01-28T02:48:11;98434.62;;;20.85;23.85
77212;BME280;66206;0.000;0.000;2023-01-28T02:50:38;98437.65;;;20.98;23.74
77212;BME280;66206;0.000;0.000;2023-01-28T02:53:08;98437.90;;;20.92;23.81
77212;BME280;66206;0.000;0.000;2023-01-28T02:55:34;98437.91;;;20.93;23.90
77212;BME280;66206;0.000;0.000;2023-01-28T02:57:59;98437.46;;;20.98;23.81
77212;BME280;66206;0.000;0.000;2023-01-28T03:00:24;98441.78;;;21.00;23.74
77212;BME280;66206;0.000;0.000;2023-01-28T03:02:55;98442.83;;;20.93;23.76
77212;BME280;66206;0.000;0.000;2023-01-28T03:05:19;98445.36;;;20.97;23.81
77212;BME280;66206;0.000;0.000;2023-01-28T03:07:48;98443.64;;;20.95;23.77
77212;BME280;66206;0.000;0.000;2023-01-28T03:12:32;98444.61;;;20.67;23.85
77212;BME280;66206;0.000;0.000;2023-01-28T03:13:58;98450.46;;;20.83;23.80
77212;BME280;66206;0.000;0.000;2023-01-28T03:16:25;98452.56;;;21.15;23.60
77212;BME280;66206;0.000;0.000;2023-01-28T03:18:51;98453.92;;;20.93;23.78
77212;BME280;66206;0.000;0.000;2023-01-28T03:21:19;98456.86;;;21.05;23.72
77212;BME280;66206;0.000;0.000;2023-01-28T03:23:49;98454.91;;;20.82;23.86
77212;BME280;66206;0.000;0.000;2023-01-28T03:26:14;98455.36;;;20.83;23.83
77212;BME280;66206;0.000;0.000;2023-01-28T03:28:41;98455.67;;;21.04;23.72
77212;BME280;66206;0.000;0.000;2023-01-28T03:31:09;98454.08;;;20.86;23.76
77212;BME280;66206;0.000;0.000;2023-01-28T03:33:38;98460.86;;;20.82;23.88
77212;BME280;66206;0.000;0.000;2023-01-28T03:36:06;98462.60;;;20.66;23.85
77212;BME280;66206;0.000;0.000;2023-01-28T03:38:33;98462.09;;;20.79;23.94
77212;BME280;66206;0.000;0.000;2023-01-28T03:41:01;98466.13;;;20.80;23.88
77212;BME280;66206;0.000;0.000;2023-01-28T03:43:28;98471.59;;;20.89;23.89
77212;BME280;66206;0.000;0.000;2023-01-28T03:45:55;98473.11;;;20.69;23.93
77212;BME280;66206;0.000;0.000;2023-01-28T03:48:22;98473.39;;;20.65;23.96
77212;BME280;66206;0.000;0.000;2023-01-28T03:50:50;98475.31;;;20.80;23.89
77212;BME280;66206;0.000;0.000;2023-01-28T03:53:17;98475.83;;;20.65;23.92
77212;BME280;66206;0.000;0.000;2023-01-28T03:55:44;98481.07;;;20.64;23.95
77212;BME280;66206;0.000;0.000;2023-01-28T03:58:12;98481.57;;;20.79;23.83
77212;BME280;66206;0.000;0.000;2023-01-28T04:00:38;98479.70;;;20.94;23.83
77212;BME280;66206;0.000;0.000;2023-01-28T04:03:05;98482.40;;;20.83;23.92
77212;BME280;66206;0.000;0.000;2023-01-28T04:05:32;98482.31;;;20.73;23.88
77212;BME280;66206;0.000;0.000;2023-01-28T04:07:59;98485.23;;;20.69;23.94
77212;BME280;66206;0.000;0.000;2023-01-28T04:10:25;98486.41;;;20.53;23.92
77212;BME280;66206;0.000;0.000;2023-01-28T04:12:52;98486.89;;;20.65;23.92
77212;BME280;66206;0.000;0.000;2023-01-28T04:15:19;98488.62;;;20.81;23.74
77212;BME280;66206;0.000;0.000;2023-01-28T04:17:46;98489.72;;;20.99;23.61
77212;BME280;66206;0.000;0.000;2023-01-28T04:20:13;98494.80;;;20.90;23.50
77212;BME280;66206;0.000;0.000;2023-01-28T04:22:40;98497.72;;;20.91;23.48
77212;BME280;66206;0.000;0.000;2023-01-28T04:25:07;98497.17;;;20.91;23.45
77212;BME280;66206;0.000;0.000;2023-01-28T04:27:34;98497.30;;;21.27;23.23
77212;BME280;66206;0.000;0.000;2023-01-28T04:30:01;98500.07;;;21.11;23.22
77212;BME280;66206;0.000;0.000;2023-01-28T04:32:27;98503.45;;;21.28;23.05
77212;BME280;66206;0.000;0.000;2023-01-28T04:34:54;98504.67;;;21.18;23.09
77212;BME280;66206;0.000;0.000;2023-01-28T04:37:21;98507.28;;;21.29;23.00
77212;BME280;66206;0.000;0.000;2023-01-28T04:39:47;98512.21;;;21.27;22.96
77212;BME280;66206;0.000;0.000;2023-01-28T04:42:14;98514.00;;;21.37;22.92
77212;BME280;66206;0.000;0.000;2023-01-28T04:44:41;98508.43;;;21.65;22.69
77212;BME280;66206;0.000;0.000;2023-01-28T04:47:07;98508.99;;;21.69;22.74
77212;BME280;66206;0.000;0.000;2023-01-28T04:49:34;98503.09;;;21.77;22.57
77212;BME280;66206;0.000;0.000;2023-01-28T04:52:01;98504.67;;;21.56;22.77
77212;BME280;66206;0.000;0.000;2023-01-28T04:54:27;98507.71;;;21.74;22.63
77212;BME280;66206;0.000;0.000;2023-01-28T04:56:54;98512.08;;;21.85;22.63
77212;BME280;66206;0.000;0.000;2023-01-28T04:59:21;98510.03;;;21.85;22.56
77212;BME280;66206;0.000;0.000;2023-01-28T05:01:47;98505.71;;;21.87;22.59
77212;BME280;66206;0.000;0.000;2023-01-28T05:04:14;98504.77;;;21.85;22.58
77212;BME280;66206;0.000;0.000;2023-01-28T05:06:41;98505.49;;;21.93;22.56
77212;BME280;66206;0.000;0.000;2023-01-28T05:09:08;98506.55;;;22.06;22.59
77212;BME280;66206;0.000;0.000;2023-01-28T05:11:34;98505.79;;;21.61;22.82
77212;BME280;66206;0.000;0.000;2023-01-28T05:14:01;98511.01;;;21.93;22.66
77212;BME280;66206;0.000;0.000;2023-01-28T05:16:28;98511.95;;;21.96;22.63
77212;BME280;66206;0.000;0.000;2023-01-28T05:18:54;98512.23;;;21.85;22.75
77212;BME280;66206;0.000;0.000;2023-01-28T05:21:21;98511.03;;;21.89;22.71
77212;BME280;66206;0.000;0.000;2023-01-28T05:23:48;98511.71;;;21.98;22.75
77212;BME280;66206;0.000;0.000;2023-01-28T05:26:14;98510.06;;;21.79;22.83
77212;BME280;66206;0.000;0.000;2023-01-28T05:28:41;98511.21;;;21.71;22.89
77212;BME280;66206;0.000;0.000;2023-01-28T05:31:08;98511.04;;;21.69;22.93
77212;BME280;66206;0.000;0.000;2023-01-28T05:33:35;98511.80;;;21.77;22.92
77212;BME280;66206;0.000;0.000;2023-01-28T05:36:02;98519.22;;;21.54;23.08
77212;BME280;66206;0.000;0.000;2023-01-28T05:38:29;98513.96;;;21.85;22.89
77212;BME280;66206;0.000;0.000;2023-01-28T05:40:56;98518.42;;;21.57;23.03
77212;BME280;66206;0.000;0.000;2023-01-28T05:43:23;98520.95;;;21.39;23.14
77212;BME280;66206;0.000;0.000;2023-01-28T05:45:49;98521.21;;;21.60;23.07
77212;BME280;66206;0.000;0.000;2023-01-28T05:48:16;98514.85;;;21.25;23.37
77212;BME280;66206;0.000;0.000;2023-01-28T05:50:45;98518.28;;;21.63;23.09
77212;BME280;66206;0.000;0.000;2023-01-28T05:53:12;98518.60;;;21.29;23.30
77212;BME280;66206;0.000;0.000;2023-01-28T05:55:38;98523.37;;;21.39;23.25
77212;BME280;66206;0.000;0.000;2023-01-28T05:58:05;98525.20;;;21.26;23.30
77212;BME280;66206;0.000;0.000;2023-01-28T06:00:32;98523.87;;;21.13;23.43
77212;BME280;66206;0.000;0.000;2023-01-28T06:02:59;98524.39;;;21.21;23.46
77212;BME280;66206;0.000;0.000;2023-01-28T06:05:25;98526.78;;;21.29;23.25
77212;BME280;66206;0.000;0.000;2023-01-28T06:07:52;98523.14;;;21.42;23.25
77212;BME280;66206;0.000;0.000;2023-01-28T06:10:19;98526.91;;;21.46;23.27
77212;BME280;66206;0.000;0.000;2023-01-28T06:12:45;98533.56;;;21.26;23.22
77212;BME280;66206;0.000;0.000;2023-01-28T06:15:12;98535.74;;;21.40;23.07
77212;BME280;66206;0.000;0.000;2023-01-28T06:17:39;98533.78;;;21.81;23.02
77212;BME280;66206;0.000;0.000;2023-01-28T06:20:06;98538.18;;;21.40;23.06
77212;BME280;66206;0.000;0.000;2023-01-28T06:22:32;98537.35;;;21.53;22.95
77212;BME280;66206;0.000;0.000;2023-01-28T06:24:59;98539.17;;;21.75;22.73
77212;BME280;66206;0.000;0.000;2023-01-28T06:27:26;98543.70;;;21.67;22.73
77212;BME280;66206;0.000;0.000;2023-01-28T06:29:52;98549.67;;;21.75;22.67
77212;BME280;66206;0.000;0.000;2023-01-28T06:32:19;98554.41;;;21.96;22.60
77212;BME280;66206;0.000;0.000;2023-01-28T06:34:46;98555.08;;;21.90;22.63
77212;BME280;66206;0.000;0.000;2023-01-28T06:37:12;98555.45;;;21.87;22.62
77212;BME280;66206;0.000;0.000;2023-01-28T06:39:39;98559.81;;;21.82;22.66
77212;BME280;66206;0.000;0.000;2023-01-28T06:42:06;98563.01;;;21.81;22.72
77212;BME280;66206;0.000;0.000;2023-01-28T06:44:33;98568.40;;;21.84;22.65
77212;BME280;66206;0.000;0.000;2023-01-28T06:47:00;98569.88;;;21.72;22.79
77212;BME280;66206;0.000;0.000;2023-01-28T06:49:26;98569.16;;;21.72;22.72
77212;BME280;66206;0.000;0.000;2023-01-28T06:51:53;98566.13;;;21.63;22.89
77212;BME280;66206;0.000;0.000;2023-01-28T06:54:20;98569.78;;;21.59;22.95
77212;BME280;66206;0.000;0.000;2023-01-28T06:56:46;98571.46;;;21.66;22.92
77212;BME280;66206;0.000;0.000;2023-01-28T06:59:13;98574.34;;;21.74;22.83
77212;BME280;66206;0.000;0.000;2023-01-28T07:01:40;98577.45;;;21.62;22.94
77212;BME280;66206;0.000;0.000;2023-01-28T07:04:06;98580.21;;;21.63;23.03
77212;BME280;66206;0.000;0.000;2023-01-28T07:06:33;98578.62;;;21.60;22.92
77212;BME280;66206;0.000;0.000;2023-01-28T07:09:00;98582.65;;;21.59;22.99
77212;BME280;66206;0.000;0.000;2023-01-28T07:11:26;98584.20;;;21.59;23.08
77212;BME280;66206;0.000;0.000;2023-01-28T07:13:53;98587.33;;;21.52;23.07
77212;BME280;66206;0.000;0.000;2023-01-28T07:16:20;98591.69;;;21.38;23.15
77212;BME280;66206;0.000;0.000;2023-01-28T07:18:46;98592.54;;;21.28;23.15
77212;BME280;66206;0.000;0.000;2023-01-28T07:21:13;98592.32;;;21.25;23.33
77212;BME280;66206;0.000;0.000;2023-01-28T07:23:40;98598.17;;;21.17;23.33
77212;BME280;66206;0.000;0.000;2023-01-28T07:26:06;98602.74;;;21.31;23.35
77212;BME280;66206;0.000;0.000;2023-01-28T07:28:33;98602.64;;;21.29;23.24
77212;BME280;66206;0.000;0.000;2023-01-28T07:31:00;98602.97;;;21.33;23.16
77212;BME280;66206;0.000;0.000;2023-01-28T07:33:26;98602.60;;;21.28;23.25
77212;BME280;66206;0.000;0.000;2023-01-28T07:35:53;98603.05;;;21.49;23.03
77212;BME280;66206;0.000;0.000;2023-01-28T07:38:20;98605.22;;;21.37;23.07
77212;BME280;66206;0.000;0.000;2023-01-28T07:40:46;98603.01;;;21.42;23.02
77212;BME280;66206;0.000;0.000;2023-01-28T07:43:13;98605.78;;;21.73;22.74
77212;BME280;66206;0.000;0.000;2023-01-28T07:45:40;98609.56;;;21.51;22.85
77212;BME280;66206;0.000;0.000;2023-01-28T07:48:08;98609.67;;;21.75;22.69
77212;BME280;66206;0.000;0.000;2023-01-28T07:50:36;98605.52;;;21.64;22.70
77212;BME280;66206;0.000;0.000;2023-01-28T07:53:03;98608.11;;;21.80;22.73
77212;BME280;66206;0.000;0.000;2023-01-28T07:55:31;98610.38;;;21.82;22.68
77212;BME280;66206;0.000;0.000;2023-01-28T07:57:58;98609.34;;;21.84;22.62
77212;BME280;66206;0.000;0.000;2023-01-28T08:00:26;98613.08;;;21.73;22.68
77212;BME280;66206;0.000;0.000;2023-01-28T08:02:54;98619.49;;;21.82;22.73
77212;BME280;66206;0.000;0.000;2023-01-28T08:05:21;98615.76;;;21.67;22.71
77212;BME280;66206;0.000;0.000;2023-01-28T08:07:48;98618.57;;;21.77;22.73
77212;BME280;66206;0.000;0.000;2023-01-28T08:10:15;98620.54;;;21.77;25.04
77212;BME280;66206;0.000;0.000;2023-01-28T08:12:49;98619.17;;;21.51;26.04
77212;BME280;66206;0.000;0.000;2023-01-28T08:15:11;98618.26;;;21.59;25.51
77212;BME280;66206;0.000;0.000;2023-01-28T08:17:37;98620.63;;;21.49;25.20
77212;BME280;66206;0.000;0.000;2023-01-28T08:20:04;98624.77;;;21.34;25.20
77212;BME280;66206;0.000;0.000;2023-01-28T08:22:31;98629.07;;;21.14;25.33
77212;BME280;66206;0.000;0.000;2023-01-28T08:24:58;98629.36;;;21.04;25.40
77212;BME280;66206;0.000;0.000;2023-01-28T08:27:25;98628.25;;;21.12;25.37
77212;BME280;66206;0.000;0.000;2023-01-28T08:29:51;98632.06;;;21.23;25.40
77212;BME280;66206;0.000;0.000;2023-01-28T08:32:18;98629.65;;;21.57;25.20
77212;BME280;66206;0.000;0.000;2023-01-28T08:34:44;98628.81;;;21.31;25.38
77212;BME280;66206;0.000;0.000;2023-01-28T08:37:11;98632.36;;;21.44;25.37
77212;BME280;66206;0.000;0.000;2023-01-28T08:39:38;98631.72;;;21.33;25.40
77212;BME280;66206;0.000;0.000;2023-01-28T08:42:05;98631.77;;;21.07;25.68
77212;BME280;66206;0.000;0.000;2023-01-28T08:44:32;98631.40;;;21.07;25.70
77212;BME280;66206;0.000;0.000;2023-01-28T08:46:59;98635.92;;;21.04;25.76
77212;BME280;66206;0.000;0.000;2023-01-28T08:49:26;98640.77;;;20.90;25.84
77212;BME280;66206;0.000;0.000;2023-01-28T08:51:52;98642.58;;;21.16;25.71
77212;BME280;66206;0.000;0.000;2023-01-28T08:54:19;98641.74;;;21.14;25.66
77212;BME280;66206;0.000;0.000;2023-01-28T08:56:46;98643.31;;;20.96;26.01
77212;BME280;66206;0.000;0.000;2023-01-28T08:59:13;98649.36;;;21.12;26.32
77212;BME280;66206;0.000;0.000;2023-01-28T09:01:40;98653.90;;;21.37;25.93
77212;BME280;66206;0.000;0.000;2023-01-28T09:04:06;98655.72;;;21.41;25.66
77212;BME280;66206;0.000;0.000;2023-01-28T09:06:33;98650.36;;;21.60;25.53
77212;BME280;66206;0.000;0.000;2023-01-28T09:09:00;98648.12;;;21.64;25.40
77212;BME280;66206;0.000;0.000;2023-01-28T09:11:27;98650.15;;;21.58;25.60
77212;BME280;66206;0.000;0.000;2023-01-28T09:13:55;98648.44;;;21.43;25.75
77212;BME280;66206;0.000;0.000;2023-01-28T09:16:22;98648.74;;;21.32;25.84
77212;BME280;66206;0.000;0.000;2023-01-28T09:18:49;98648.60;;;21.73;26.68
77212;BME280;66206;0.000;0.000;2023-01-28T09:21:16;98652.19;;;22.22;25.87
77212;BME280;66206;0.000;0.000;2023-01-28T09:23:43;98651.50;;;22.44;24.99
77212;BME280;66206;0.000;0.000;2023-01-28T09:26:09;98652.01;;;22.37;24.98
77212;BME280;66206;0.000;0.000;2023-01-28T09:28:36;98659.55;;;22.49;24.40
77212;BME280;66206;0.000;0.000;2023-01-28T09:31:03;98661.37;;;22.65;24.05
77212;BME280;66206;0.000;0.000;2023-01-28T09:33:30;98662.28;;;22.48;24.12
77212;BME280;66206;0.000;0.000;2023-01-28T09:35:58;98667.09;;;22.52;24.07
77212;BME280;66206;0.000;0.000;2023-01-28T09:38:25;98668.18;;;22.50;24.02
77212;BME280;66206;0.000;0.000;2023-01-28T09:40:52;98669.58;;;22.69;24.03
77212;BME280;66206;0.000;0.000;2023-01-28T09:43:25;98677.43;;;22.37;24.21
77212;BME280;66206;0.000;0.000;2023-01-28T09:45:47;98680.13;;;22.42;24.31
77212;BME280;66206;0.000;0.000;2023-01-28T09:48:14;98684.65;;;22.06;24.52
77212;BME280;66206;0.000;0.000;2023-01-28T09:50:44;98686.64;;;22.43;24.31
77212;BME280;66206;0.000;0.000;2023-01-28T09:53:12;98684.95;;;22.19;24.22
77212;BME280;66206;0.000;0.000;2023-01-28T09:55:37;98682.17;;;22.23;24.22
77212;BME280;66206;0.000;0.000;2023-01-28T09:58:05;98684.91;;;22.18;24.22
77212;BME280;66206;0.000;0.000;2023-01-28T10:00:33;98689.05;;;22.42;23.97
77212;BME280;66206;0.000;0.000;2023-01-28T10:03:07;98692.70;;;22.61;23.96
77212;BME280;66206;0.000;0.000;2023-01-28T10:05:30;98688.98;;;22.39;23.96
77212;BME280;66206;0.000;0.000;2023-01-28T10:07:56;98687.42;;;22.31;24.05
77212;BME280;66206;0.000;0.000;2023-01-28T10:10:24;98685.52;;;22.41;24.03
77212;BME280;66206;0.000;0.000;2023-01-28T10:12:51;98677.75;;;22.30;24.08
77212;BME280;66206;0.000;0.000;2023-01-28T10:15:21;98675.46;;;22.40;23.92
77212;BME280;66206;0.000;0.000;2023-01-28T10:17:42;98676.50;;;22.35;23.96
77212;BME280;66206;0.000;0.000;2023-01-28T10:20:15;98679.16;;;22.54;23.81
77212;BME280;66206;0.000;0.000;2023-01-28T10:22:38;98682.03;;;22.60;23.74
77212;BME280;66206;0.000;0.000;2023-01-28T10:25:13;98675.24;;;22.87;23.50
77212;BME280;66206;0.000;0.000;2023-01-28T10:27:36;98675.86;;;23.10;23.33
77212;BME280;66206;0.000;0.000;2023-01-28T10:30:14;98677.11;;;23.19;23.15
77212;BME280;66206;0.000;0.000;2023-01-28T10:32:32;98672.42;;;23.41;23.20
77212;BME280;66206;0.000;0.000;2023-01-28T10:34:59;98671.13;;;23.45;23.04
77212;BME280;66206;0.000;0.000;2023-01-28T10:37:26;98669.78;;;23.66;22.87
77212;BME280;66206;0.000;0.000;2023-01-28T10:39:54;98665.75;;;23.63;22.68
77212;BME280;66206;0.000;0.000;2023-01-28T10:42:25;98668.84;;;23.88;22.49
77212;BME280;66206;0.000;0.000;2023-01-28T10:44:47;98662.70;;;24.14;22.34
77212;BME280;66206;0.000;0.000;2023-01-28T10:47:15;98658.63;;;24.09;22.35
77212;BME280;66206;0.000;0.000;2023-01-28T10:49:41;98661.17;;;24.12;22.35
77212;BME280;66206;0.000;0.000;2023-01-28T10:52:10;98662.01;;;23.96;22.34
77212;BME280;66206;0.000;0.000;2023-01-28T10:54:37;98659.41;;;23.89;22.27
77212;BME280;66206;0.000;0.000;2023-01-28T10:57:04;98663.04;;;23.77;22.63
77212;BME280;66206;0.000;0.000;2023-01-28T10:59:31;98667.67;;;23.84;22.65
77212;BME280;66206;0.000;0.000;2023-01-28T11:01:59;98666.75;;;23.90;22.61
77212;BME280;66206;0.000;0.000;2023-01-28T11:04:27;98671.35;;;23.94;22.62
77212;BME280;66206;0.000;0.000;2023-01-28T11:06:55;98673.68;;;23.84;22.72
77212;BME280;66206;0.000;0.000;2023-01-28T11:09:24;98673.17;;;23.97;22.76
77212;BME280;66206;0.000;0.000;2023-01-28T11:11:51;98672.88;;;23.54;22.95
77212;BME280;66206;0.000;0.000;2023-01-28T11:14:19;98675.54;;;23.62;23.01
77212;BME280;66206;0.000;0.000;2023-01-28T11:16:45;98672.59;;;23.43;23.17
77212;BME280;66206;0.000;0.000;2023-01-28T11:19:13;98675.23;;;23.70;23.15
77212;BME280;66206;0.000;0.000;2023-01-28T11:21:39;98671.00;;;23.48;23.17
77212;BME280;66206;0.000;0.000;2023-01-28T11:24:13;98672.13;;;23.46;23.31
77212;BME280;66206;0.000;0.000;2023-01-28T11:26:35;98677.21;;;23.34;23.34
77212;BME280;66206;0.000;0.000;2023-01-28T11:29:02;98678.47;;;23.55;23.31
77212;BME280;66206;0.000;0.000;2023-01-28T11:31:29;98679.64;;;23.44;23.50
77212;BME280;66206;0.000;0.000;2023-01-28T11:33:58;98683.14;;;23.43;23.59
77212;BME280;66206;0.000;0.000;2023-01-28T11:36:26;98683.79;;;23.53;23.54
77212;BME280;66206;0.000;0.000;2023-01-28T11:38:54;98684.97;;;23.34;23.60
77212;BME280;66206;0.000;0.000;2023-01-28T11:41:24;98684.62;;;23.39;23.53
77212;BME280;66206;0.000;0.000;2023-01-28T11:43:46;98680.11;;;23.78;23.30
77212;BME280;66206;0.000;0.000;2023-01-28T11:46:18;98678.22;;;23.62;23.27
77212;BME280;66206;0.000;0.000;2023-01-28T11:48:41;98680.80;;;23.48;23.24
77212;BME280;66206;0.000;0.000;2023-01-28T11:51:15;98680.95;;;22.87;23.75
77212;BME280;66206;0.000;0.000;2023-01-28T11:53:38;98678.02;;;22.88;22.92
77212;BME280;66206;0.000;0.000;2023-01-28T11:56:06;98679.03;;;22.28;21.86
77212;BME280;66206;0.000;0.000;2023-01-28T11:58:34;98682.42;;;22.08;21.40
77212;BME280;66206;0.000;0.000;2023-01-28T12:01:02;98680.57;;;21.67;21.02
77212;BME280;66206;0.000;0.000;2023-01-28T12:03:38;98682.07;;;21.51;20.99
77212;BME280;66206;0.000;0.000;2023-01-28T12:05:56;98677.58;;;21.42;20.35
77212;BME280;66206;0.000;0.000;2023-01-28T12:08:25;98676.90;;;21.18;20.51
77212;BME280;66206;0.000;0.000;2023-01-28T12:10:54;98676.13;;;20.87;20.19
77212;BME280;66206;0.000;0.000;2023-01-28T12:13:22;98671.18;;;20.88;19.84
77212;BME280;66206;0.000;0.000;2023-01-28T12:15:47;98670.70;;;20.83;19.71
77212;BME280;66206;0.000;0.000;2023-01-28T12:18:15;98667.52;;;20.99;19.72
77212;BME280;66206;0.000;0.000;2023-01-28T12:20:38;98670.98;;;20.85;19.25
77212;BME280;66206;0.000;0.000;2023-01-28T12:23:12;98676.19;;;21.10;20.07
77212;BME280;66206;0.000;0.000;2023-01-28T12:27:55;98673.56;;;21.23;22.33
77212;BME280;66206;0.000;0.000;2023-01-28T12:29:20;98673.42;;;22.18;21.80
77212;BME280;66206;0.000;0.000;2023-01-28T12:31:49;98678.92;;;22.80;20.72
77212;BME280;66206;0.000;0.000;2023-01-28T12:34:21;98673.79;;;23.14;20.42
77212;BME280;66206;0.000;0.000;2023-01-28T12:36:43;98672.40;;;23.31;20.53
77212;BME280;66206;0.000;0.000;2023-01-28T12:39:10;98669.83;;;23.49;20.61
77212;BME280;66206;0.000;0.000;2023-01-28T12:41:36;98673.88;;;23.43;20.90
77212;BME280;66206;0.000;0.000;2023-01-28T12:44:08;98673.40;;;22.81;21.36
77212;BME280;66206;0.000;0.000;2023-01-28T12:46:37;98668.43;;;23.42;20.82
77212;BME280;66206;0.000;0.000;2023-01-28T12:49:02;98669.92;;;23.84;20.71
77212;BME280;66206;0.000;0.000;2023-01-28T12:51:31;98668.09;;;23.93;20.59
77212;BME280;66206;0.000;0.000;2023-01-28T12:53:56;98666.31;;;24.05;20.84
77212;BME280;66206;0.000;0.000;2023-01-28T12:56:26;98663.17;;;24.41;20.60
77212;BME280;66206;0.000;0.000;2023-01-28T12:58:55;98659.23;;;24.11;20.95
77212;BME280;66206;0.000;0.000;2023-01-28T13:01:24;98658.79;;;24.16;20.85
77212;BME280;66206;0.000;0.000;2023-01-28T13:03:55;98653.33;;;24.29;20.48
77212;BME280;66206;0.000;0.000;2023-01-28T13:06:25;98658.91;;;23.85;20.85
77212;BME280;66206;0.000;0.000;2023-01-28T13:08:55;98660.30;;;23.97;20.78
77212;BME280;66206;0.000;0.000;2023-01-28T13:11:18;98657.77;;;23.71;21.11